sensor_id;sensor_type;location;lat;lon;timestamp;pressure;altitude;pressure_sealevel;temperature;humidity
23166;BME280;11751;42.700;24.170;2023-03-23T00:01:47;93873.81;;;8.31;98.74
23166;BME280;11751;42.700;24.170;2023-03-23T00:04:15;93864.91;;;8.33;98.78
23166;BME280;11751;42.700;24.170;2023-03-23T00:06:41;93863.81;;;8.36;98.89
23166;BME280;11751;42.700;24.170;2023-03-23T00:09:06;93859.53;;;8.35;98.90
23166;BME280;11751;42.700;24.170;2023-03-23T00:11:32;93865.97;;;8.30;99.45
23166;BME280;11751;42.700;24.170;2023-03-23T00:14:00;93863.59;;;8.34;99.58
23166;BME280;11751;42.700;24.170;2023-03-23T00:16:29;93868.69;;;8.43;99.22
23166;BME280;11751;42.700;24.170;2023-03-23T00:19:00;93863.84;;;7.95;100.00
23166;BME280;11751;42.700;24.170;2023-03-23T00:21:30;93857.59;;;8.22;100.00
23166;BME280;11751;42.700;24.170;2023-03-23T00:24:05;93860.25;;;8.35;99.70
23166;BME280;11751;42.700;24.170;2023-03-23T00:26:32;93856.75;;;8.14;100.00
23166;BME280;11751;42.700;24.170;2023-03-23T00:29:00;93858.13;;;8.21;100.00
23166;BME280;11751;42.700;24.170;2023-03-23T00:31:26;93861.91;;;8.31;99.81
23166;BME280;11751;42.700;24.170;2023-03-23T00:33:57;93864.19;;;8.40;99.23
23166;BME280;11751;42.700;24.170;2023-03-23T00:36:23;93846.72;;;8.39;99.29
23166;BME280;11751;42.700;24.170;2023-03-23T00:38:48;93853.28;;;8.49;98.82
23166;BME280;11751;42.700;24.170;2023-03-23T00:41:14;93822.13;;;8.38;98.46
23166;BME280;11751;42.700;24.170;2023-03-23T00:43:40;93853.69;;;8.25;100.00
23166;BME280;11751;42.700;24.170;2023-03-23T00:46:06;93855.94;;;8.27;100.00
23166;BME280;11751;42.700;24.170;2023-03-23T00:48:36;93862.59;;;8.24;100.00
23166;BME280;11751;42.700;24.170;2023-03-23T00:51:06;93851.28;;;8.01;100.00
23166;BME280;11751;42.700;24.170;2023-03-23T00:53:38;93845.66;;;8.22;100.00
23166;BME280;11751;42.700;24.170;2023-03-23T00:56:04;93848.50;;;8.29;100.00
23166;BME280;11751;42.700;24.170;2023-03-23T00:58:30;93851.25;;;8.22;100.00
23166;BME280;11751;42.700;24.170;2023-03-23T01:00:55;93856.69;;;8.27;100.00
23166;BME280;11751;42.700;24.170;2023-03-23T01:03:22;93852.22;;;8.04;100.00
23166;BME280;11751;42.700;24.170;2023-03-23T01:05:51;93854.94;;;8.17;100.00
23166;BME280;11751;42.700;24.170;2023-03-23T01:08:17;93853.47;;;8.23;100.00
23166;BME280;11751;42.700;24.170;2023-03-23T01:10:45;93834.16;;;8.25;100.00
23166;BME280;11751;42.700;24.170;2023-03-23T01:13:12;93838.25;;;8.24;100.00
23166;BME280;11751;42.700;24.170;2023-03-23T01:15:38;93834.38;;;8.27;100.00
23166;BME280;11751;42.700;24.170;2023-03-23T01:18:04;93836.78;;;8.03;100.00
23166;BME280;11751;42.700;24.170;2023-03-23T01:20:30;93839.97;;;8.07;100.00
23166;BME280;11751;42.700;24.170;2023-03-23T01:22:59;93841.69;;;7.69;100.00
23166;BME280;11751;42.700;24.170;2023-03-23T01:25:31;93844.66;;;7.63;100.00
23166;BME280;11751;42.700;24.170;2023-03-23T01:27:57;93841.63;;;7.82;100.00
23166;BME280;11751;42.700;24.170;2023-03-23T01:30:23;93846.72;;;7.91;100.00
23166;BME280;11751;42.700;24.170;2023-03-23T01:32:49;93846.22;;;8.00;100.00
23166;BME280;11751;42.700;24.170;2023-03-23T01:35:15;93842.44;;;7.90;100.00
23166;BME280;11751;42.700;24.170;2023-03-23T01:37:42;93843.44;;;8.00;100.00
23166;BME280;11751;42.700;24.170;2023-03-23T01:40:08;93839.34;;;8.01;100.00
23166;BME280;11751;42.700;24.170;2023-03-23T01:42:35;93826.50;;;7.98;100.00
23166;BME280;11751;42.700;24.170;2023-03-23T01:50:42;93814.97;;;7.73;100.00
23166;BME280;11751;42.700;24.170;2023-03-23T01:53:10;93819.34;;;7.41;100.00
23166;BME280;11751;42.700;24.170;2023-03-23T01:55:38;93829.75;;;7.41;100.00
23166;BME280;11751;42.700;24.170;2023-03-23T01:58:06;93820.63;;;7.40;100.00
23166;BME280;11751;42.700;24.170;2023-03-23T02:00:32;93823.63;;;7.42;100.00
23166;BME280;11751;42.700;24.170;2023-03-23T02:03:00;93827.31;;;7.37;100.00
23166;BME280;11751;42.700;24.170;2023-03-23T02:05:30;93826.88;;;7.33;100.00
23166;BME280;11751;42.700;24.170;2023-03-23T02:07:59;93824.31;;;7.35;100.00
23166;BME280;11751;42.700;24.170;2023-03-23T02:10:29;93822.59;;;7.32;100.00
23166;BME280;11751;42.700;24.170;2023-03-23T02:12:55;93820.25;;;7.36;100.00
23166;BME280;11751;42.700;24.170;2023-03-23T02:15:21;93827.03;;;7.48;100.00
23166;BME280;11751;42.700;24.170;2023-03-23T02:17:57;93825.94;;;7.51;100.00
23166;BME280;11751;42.700;24.170;2023-03-23T02:23:16;93822.41;;;7.30;100.00
23166;BME280;11751;42.700;24.170;2023-03-23T02:26:19;93828.13;;;7.45;100.00
23166;BME280;11751;42.700;24.170;2023-03-23T02:34:00;93821.75;;;7.37;100.00
23166;BME280;11751;42.700;24.170;2023-03-23T02:36:35;93840.06;;;7.53;100.00
23166;BME280;11751;42.700;24.170;2023-03-23T02:39:12;93833.44;;;7.56;100.00
23166;BME280;11751;42.700;24.170;2023-03-23T02:41:52;93840.88;;;7.61;100.00
23166;BME280;11751;42.700;24.170;2023-03-23T02:44:21;93841.38;;;7.52;100.00
23166;BME280;11751;42.700;24.170;2023-03-23T02:46:48;93834.22;;;7.64;100.00
23166;BME280;11751;42.700;24.170;2023-03-23T02:49:15;93845.53;;;7.38;100.00
23166;BME280;11751;42.700;24.170;2023-03-23T02:51:44;93851.63;;;7.57;100.00
23166;BME280;11751;42.700;24.170;2023-03-23T02:54:12;93841.38;;;7.72;100.00
23166;BME280;11751;42.700;24.170;2023-03-23T02:56:40;93845.50;;;7.79;100.00
23166;BME280;11751;42.700;24.170;2023-03-23T02:59:05;93851.16;;;7.66;100.00
23166;BME280;11751;42.700;24.170;2023-03-23T03:04:20;93855.78;;;7.63;100.00
23166;BME280;11751;42.700;24.170;2023-03-23T03:06:57;93868.09;;;7.68;100.00
23166;BME280;11751;42.700;24.170;2023-03-23T03:12:05;93866.59;;;7.67;100.00
23166;BME280;11751;42.700;24.170;2023-03-23T03:14:57;93858.69;;;7.04;100.00
23166;BME280;11751;42.700;24.170;2023-03-23T03:17:26;93869.94;;;7.32;100.00
23166;BME280;11751;42.700;24.170;2023-03-23T03:20:01;93867.34;;;7.47;100.00
23166;BME280;11751;42.700;24.170;2023-03-23T03:22:41;93872.44;;;7.56;100.00
23166;BME280;11751;42.700;24.170;2023-03-23T03:25:08;93859.88;;;7.63;100.00
23166;BME280;11751;42.700;24.170;2023-03-23T03:27:35;93874.25;;;7.74;100.00
23166;BME280;11751;42.700;24.170;2023-03-23T03:30:03;93866.31;;;7.78;100.00
23166;BME280;11751;42.700;24.170;2023-03-23T03:32:36;93865.22;;;7.81;100.00
23166;BME280;11751;42.700;24.170;2023-03-23T03:35:04;93856.63;;;7.79;100.00
23166;BME280;11751;42.700;24.170;2023-03-23T03:37:38;93860.78;;;7.85;100.00
23166;BME280;11751;42.700;24.170;2023-03-23T03:40:08;93876.44;;;7.88;100.00
23166;BME280;11751;42.700;24.170;2023-03-23T03:42:40;93877.03;;;7.74;100.00
23166;BME280;11751;42.700;24.170;2023-03-23T03:45:11;93869.63;;;7.76;100.00
23166;BME280;11751;42.700;24.170;2023-03-23T03:47:36;93871.47;;;7.74;100.00
23166;BME280;11751;42.700;24.170;2023-03-23T03:50:02;93868.91;;;7.76;100.00
23166;BME280;11751;42.700;24.170;2023-03-23T03:52:28;93861.63;;;7.73;100.00
23166;BME280;11751;42.700;24.170;2023-03-23T03:54:54;93858.69;;;7.78;100.00
23166;BME280;11751;42.700;24.170;2023-03-23T03:57:20;93858.09;;;7.72;100.00
23166;BME280;11751;42.700;24.170;2023-03-23T03:59:45;93850.69;;;7.75;100.00
23166;BME280;11751;42.700;24.170;2023-03-23T04:02:12;93856.53;;;7.64;100.00
23166;BME280;11751;42.700;24.170;2023-03-23T04:04:42;93882.81;;;7.56;100.00
23166;BME280;11751;42.700;24.170;2023-03-23T04:07:08;93873.59;;;7.61;100.00
23166;BME280;11751;42.700;24.170;2023-03-23T04:09:36;93868.34;;;7.57;100.00
23166;BME280;11751;42.700;24.170;2023-03-23T04:12:02;93853.13;;;7.58;100.00
23166;BME280;11751;42.700;24.170;2023-03-23T04:14:28;93852.28;;;7.50;100.00
23166;BME280;11751;42.700;24.170;2023-03-23T04:16:53;93866.09;;;7.35;100.00
23166;BME280;11751;42.700;24.170;2023-03-23T04:19:22;93864.13;;;7.43;100.00
23166;BME280;11751;42.700;24.170;2023-03-23T04:21:48;93863.59;;;7.11;100.00
23166;BME280;11751;42.700;24.170;2023-03-23T04:24:15;93868.13;;;7.01;100.00
23166;BME280;11751;42.700;24.170;2023-03-23T04:26:40;93872.19;;;7.00;100.00
23166;BME280;11751;42.700;24.170;2023-03-23T04:29:07;93871.69;;;7.22;100.00
23166;BME280;11751;42.700;24.170;2023-03-23T04:31:33;93886.38;;;7.23;100.00
23166;BME280;11751;42.700;24.170;2023-03-23T04:34:00;93860.81;;;7.11;100.00
23166;BME280;11751;42.700;24.170;2023-03-23T04:36:27;93868.06;;;7.27;100.00
23166;BME280;11751;42.700;24.170;2023-03-23T04:38:54;93857.41;;;7.05;100.00
23166;BME280;11751;42.700;24.170;2023-03-23T04:41:21;93878.41;;;6.93;100.00
23166;BME280;11751;42.700;24.170;2023-03-23T04:43:47;93880.06;;;6.76;100.00
23166;BME280;11751;42.700;24.170;2023-03-23T04:46:18;93881.69;;;6.59;100.00
23166;BME280;11751;42.700;24.170;2023-03-23T04:48:45;93896.84;;;6.83;100.00
23166;BME280;11751;42.700;24.170;2023-03-23T04:51:11;93878.41;;;6.93;100.00
23166;BME280;11751;42.700;24.170;2023-03-23T04:53:39;93885.19;;;6.85;100.00
23166;BME280;11751;42.700;24.170;2023-03-23T04:56:06;93884.81;;;7.01;100.00
23166;BME280;11751;42.700;24.170;2023-03-23T04:58:32;93887.03;;;7.16;100.00
23166;BME280;11751;42.700;24.170;2023-03-23T05:01:00;93894.75;;;7.23;100.00
23166;BME280;11751;42.700;24.170;2023-03-23T05:03:25;93899.09;;;7.31;100.00
23166;BME280;11751;42.700;24.170;2023-03-23T05:05:53;93900.47;;;7.38;100.00
23166;BME280;11751;42.700;24.170;2023-03-23T05:08:22;93898.00;;;7.34;100.00
23166;BME280;11751;42.700;24.170;2023-03-23T05:10:52;93904.06;;;7.46;100.00
23166;BME280;11751;42.700;24.170;2023-03-23T05:13:18;93902.88;;;7.54;100.00
23166;BME280;11751;42.700;24.170;2023-03-23T05:15:43;93921.06;;;7.55;100.00
23166;BME280;11751;42.700;24.170;2023-03-23T05:18:09;93915.09;;;7.51;100.00
23166;BME280;11751;42.700;24.170;2023-03-23T05:20:36;93893.06;;;7.40;100.00
23166;BME280;11751;42.700;24.170;2023-03-23T05:23:01;93902.97;;;7.28;100.00
23166;BME280;11751;42.700;24.170;2023-03-23T05:25:27;93913.66;;;7.37;100.00
23166;BME280;11751;42.700;24.170;2023-03-23T05:27:52;93921.75;;;7.48;100.00
23166;BME280;11751;42.700;24.170;2023-03-23T05:30:20;93924.22;;;7.72;100.00
23166;BME280;11751;42.700;24.170;2023-03-23T05:32:47;93917.56;;;7.75;100.00
23166;BME280;11751;42.700;24.170;2023-03-23T05:35:16;93919.19;;;7.91;100.00
23166;BME280;11751;42.700;24.170;2023-03-23T05:37:42;93922.59;;;7.97;99.70
23166;BME280;11751;42.700;24.170;2023-03-23T05:40:09;93936.88;;;8.14;98.35
23166;BME280;11751;42.700;24.170;2023-03-23T05:42:38;93938.13;;;8.26;97.84
23166;BME280;11751;42.700;24.170;2023-03-23T05:45:05;93933.00;;;8.37;97.46
23166;BME280;11751;42.700;24.170;2023-03-23T05:47:31;93932.28;;;8.44;97.06
23166;BME280;11751;42.700;24.170;2023-03-23T05:49:57;93940.59;;;8.57;96.57
23166;BME280;11751;42.700;24.170;2023-03-23T05:52:23;93933.25;;;8.74;96.21
23166;BME280;11751;42.700;24.170;2023-03-23T05:54:51;93932.97;;;8.85;95.66
23166;BME280;11751;42.700;24.170;2023-03-23T05:57:18;93930.03;;;8.98;95.17
23166;BME280;11751;42.700;24.170;2023-03-23T05:59:44;93922.47;;;9.14;94.54
23166;BME280;11751;42.700;24.170;2023-03-23T06:02:10;93926.97;;;9.17;93.86
23166;BME280;11751;42.700;24.170;2023-03-23T06:04:36;93935.47;;;9.46;93.14
23166;BME280;11751;42.700;24.170;2023-03-23T06:07:03;93942.09;;;9.79;91.24
23166;BME280;11751;42.700;24.170;2023-03-23T06:09:28;93942.44;;;9.75;90.36
23166;BME280;11751;42.700;24.170;2023-03-23T06:11:54;93940.13;;;10.02;90.15
23166;BME280;11751;42.700;24.170;2023-03-23T06:14:20;93944.56;;;10.05;89.69
23166;BME280;11751;42.700;24.170;2023-03-23T06:16:46;93920.66;;;9.89;88.35
23166;BME280;11751;42.700;24.170;2023-03-23T06:19:12;93936.78;;;10.11;87.46
23166;BME280;11751;42.700;24.170;2023-03-23T06:21:37;93939.03;;;10.27;86.81
23166;BME280;11751;42.700;24.170;2023-03-23T06:24:03;93951.88;;;10.30;86.74
23166;BME280;11751;42.700;24.170;2023-03-23T06:26:39;93949.47;;;10.41;86.81
23166;BME280;11751;42.700;24.170;2023-03-23T06:29:06;93951.53;;;10.56;85.15
23166;BME280;11751;42.700;24.170;2023-03-23T06:31:38;93947.03;;;10.60;85.33
23166;BME280;11751;42.700;24.170;2023-03-23T06:34:04;93945.34;;;10.72;84.93
23166;BME280;11751;42.700;24.170;2023-03-23T06:36:30;93946.97;;;11.05;85.08
23166;BME280;11751;42.700;24.170;2023-03-23T06:38:55;93943.06;;;11.08;85.18
23166;BME280;11751;42.700;24.170;2023-03-23T06:41:21;93959.41;;;11.34;83.92
23166;BME280;11751;42.700;24.170;2023-03-23T06:43:47;93965.38;;;11.38;82.63
23166;BME280;11751;42.700;24.170;2023-03-23T06:46:12;93955.44;;;11.59;83.57
23166;BME280;11751;42.700;24.170;2023-03-23T06:48:38;93961.53;;;11.73;82.29
23166;BME280;11751;42.700;24.170;2023-03-23T06:51:04;93966.06;;;11.61;81.95
23166;BME280;11751;42.700;24.170;2023-03-23T06:53:29;93966.81;;;11.69;82.22
23166;BME280;11751;42.700;24.170;2023-03-23T06:55:55;93954.44;;;11.72;81.35
23166;BME280;11751;42.700;24.170;2023-03-23T06:58:22;93947.31;;;11.71;81.45
23166;BME280;11751;42.700;24.170;2023-03-23T07:00:53;93955.50;;;11.84;81.57
23166;BME280;11751;42.700;24.170;2023-03-23T07:03:18;93958.75;;;12.04;80.72
23166;BME280;11751;42.700;24.170;2023-03-23T07:05:46;93952.13;;;12.17;79.84
23166;BME280;11751;42.700;24.170;2023-03-23T07:08:12;93962.34;;;12.29;78.31
23166;BME280;11751;42.700;24.170;2023-03-23T07:10:38;93948.19;;;12.20;78.00
23166;BME280;11751;42.700;24.170;2023-03-23T07:13:04;93956.25;;;12.40;78.40
23166;BME280;11751;42.700;24.170;2023-03-23T07:15:29;93952.31;;;12.68;77.86
23166;BME280;11751;42.700;24.170;2023-03-23T07:17:54;93953.00;;;12.76;75.05
23166;BME280;11751;42.700;24.170;2023-03-23T07:20:20;93948.53;;;12.97;74.28
23166;BME280;11751;42.700;24.170;2023-03-23T07:22:46;93952.66;;;12.96;75.22
23166;BME280;11751;42.700;24.170;2023-03-23T07:25:11;93956.81;;;13.12;74.17
23166;BME280;11751;42.700;24.170;2023-03-23T07:27:36;93942.75;;;12.95;71.74
23166;BME280;11751;42.700;24.170;2023-03-23T07:30:03;93966.69;;;13.20;70.32
23166;BME280;11751;42.700;24.170;2023-03-23T07:32:29;93975.66;;;13.19;71.52
23166;BME280;11751;42.700;24.170;2023-03-23T07:34:54;93976.66;;;13.14;71.40
23166;BME280;11751;42.700;24.170;2023-03-23T07:37:21;93972.00;;;12.92;70.45
23166;BME280;11751;42.700;24.170;2023-03-23T07:39:48;93968.22;;;12.97;70.81
23166;BME280;11751;42.700;24.170;2023-03-23T07:42:14;93981.47;;;13.21;70.54
23166;BME280;11751;42.700;24.170;2023-03-23T07:44:39;93984.19;;;13.11;70.30
23166;BME280;11751;42.700;24.170;2023-03-23T07:47:05;93978.63;;;13.04;68.36
23166;BME280;11751;42.700;24.170;2023-03-23T07:49:31;93976.00;;;13.06;68.16
23166;BME280;11751;42.700;24.170;2023-03-23T07:51:57;93986.41;;;13.13;68.22
23166;BME280;11751;42.700;24.170;2023-03-23T07:54:23;93987.75;;;13.29;68.33
23166;BME280;11751;42.700;24.170;2023-03-23T07:56:49;93995.22;;;13.51;66.72
23166;BME280;11751;42.700;24.170;2023-03-23T07:59:14;93992.41;;;13.51;66.87
23166;BME280;11751;42.700;24.170;2023-03-23T08:01:40;93985.13;;;13.65;67.43
23166;BME280;11751;42.700;24.170;2023-03-23T08:04:06;93990.09;;;13.57;65.98
23166;BME280;11751;42.700;24.170;2023-03-23T08:06:33;93998.88;;;13.61;65.36
23166;BME280;11751;42.700;24.170;2023-03-23T08:08:59;93998.97;;;13.70;65.53
23166;BME280;11751;42.700;24.170;2023-03-23T08:11:25;93998.44;;;13.81;64.68
23166;BME280;11751;42.700;24.170;2023-03-23T08:13:51;94003.91;;;13.96;63.99
23166;BME280;11751;42.700;24.170;2023-03-23T08:16:16;93997.19;;;13.91;64.06
23166;BME280;11751;42.700;24.170;2023-03-23T08:18:44;94006.75;;;14.05;63.37
23166;BME280;11751;42.700;24.170;2023-03-23T08:21:09;94000.75;;;14.09;62.02
23166;BME280;11751;42.700;24.170;2023-03-23T08:23:36;94002.16;;;14.17;60.38
23166;BME280;11751;42.700;24.170;2023-03-23T08:26:03;94015.97;;;14.06;60.47
23166;BME280;11751;42.700;24.170;2023-03-23T08:28:30;93998.19;;;13.86;60.57
23166;BME280;11751;42.700;24.170;2023-03-23T08:30:55;94003.16;;;14.12;59.32
23166;BME280;11751;42.700;24.170;2023-03-23T08:33:20;94001.31;;;14.24;58.89
23166;BME280;11751;42.700;24.170;2023-03-23T08:35:54;94003.75;;;14.37;59.49
23166;BME280;11751;42.700;24.170;2023-03-23T08:38:20;94000.56;;;14.50;58.19
23166;BME280;11751;42.700;24.170;2023-03-23T08:40:46;93996.44;;;14.51;59.64
23166;BME280;11751;42.700;24.170;2023-03-23T08:43:13;94004.63;;;14.56;58.46
23166;BME280;11751;42.700;24.170;2023-03-23T08:45:38;93995.75;;;14.69;57.45
23166;BME280;11751;42.700;24.170;2023-03-23T08:48:04;93997.47;;;14.82;58.12
23166;BME280;11751;42.700;24.170;2023-03-23T08:50:30;94002.78;;;14.78;57.50
23166;BME280;11751;42.700;24.170;2023-03-23T08:52:55;94004.34;;;14.62;56.44
23166;BME280;11751;42.700;24.170;2023-03-23T08:55:21;93990.16;;;14.43;55.43
23166;BME280;11751;42.700;24.170;2023-03-23T08:57:47;93998.84;;;14.11;57.02
23166;BME280;11751;42.700;24.170;2023-03-23T09:00:16;94001.09;;;13.79;56.67
23166;BME280;11751;42.700;24.170;2023-03-23T09:02:48;93992.56;;;13.86;55.82
23166;BME280;11751;42.700;24.170;2023-03-23T09:05:15;94004.47;;;13.77;58.24
23166;BME280;11751;42.700;24.170;2023-03-23T09:07:44;93992.16;;;13.56;58.33
23166;BME280;11751;42.700;24.170;2023-03-23T09:10:12;93996.84;;;13.87;59.54
23166;BME280;11751;42.700;24.170;2023-03-23T09:12:39;93980.50;;;13.43;59.15
23166;BME280;11751;42.700;24.170;2023-03-23T09:15:06;93985.47;;;13.52;60.35
23166;BME280;11751;42.700;24.170;2023-03-23T09:17:36;93992.75;;;13.55;57.73
23166;BME280;11751;42.700;24.170;2023-03-23T09:20:02;93975.94;;;13.30;60.75
23166;BME280;11751;42.700;24.170;2023-03-23T09:22:32;93989.25;;;13.30;62.17
23166;BME280;11751;42.700;24.170;2023-03-23T09:24:58;93985.09;;;13.14;62.51
23166;BME280;11751;42.700;24.170;2023-03-23T09:27:23;93990.56;;;13.12;61.35
23166;BME280;11751;42.700;24.170;2023-03-23T09:29:49;93991.59;;;12.75;63.29
23166;BME280;11751;42.700;24.170;2023-03-23T09:32:14;93987.38;;;12.83;64.18
23166;BME280;11751;42.700;24.170;2023-03-23T09:34:40;93981.38;;;12.87;63.96
23166;BME280;11751;42.700;24.170;2023-03-23T09:37:06;93990.00;;;12.89;64.22
23166;BME280;11751;42.700;24.170;2023-03-23T09:39:31;93989.47;;;12.83;64.04
23166;BME280;11751;42.700;24.170;2023-03-23T09:48:23;93998.97;;;12.39;67.15
23166;BME280;11751;42.700;24.170;2023-03-23T09:50:58;93988.72;;;12.02;69.38
23166;BME280;11751;42.700;24.170;2023-03-23T09:53:36;93986.41;;;12.08;69.05
23166;BME280;11751;42.700;24.170;2023-03-23T09:56:10;93973.47;;;12.12;67.18
23166;BME280;11751;42.700;24.170;2023-03-23T09:58:58;94001.25;;;12.33;67.13
23166;BME280;11751;42.700;24.170;2023-03-23T10:01:31;93995.75;;;12.10;67.24
23166;BME280;11751;42.700;24.170;2023-03-23T10:04:35;94001.56;;;12.12;66.49
23166;BME280;11751;42.700;24.170;2023-03-23T10:09:36;93984.94;;;12.63;65.61
23166;BME280;11751;42.700;24.170;2023-03-23T10:12:10;93988.84;;;12.92;63.42
23166;BME280;11751;42.700;24.170;2023-03-23T10:17:22;93978.06;;;12.81;62.17
23166;BME280;11751;42.700;24.170;2023-03-23T10:22:44;93985.75;;;13.05;63.11
23166;BME280;11751;42.700;24.170;2023-03-23T10:30:41;93977.41;;;13.82;61.95
23166;BME280;11751;42.700;24.170;2023-03-23T10:33:56;93978.03;;;14.24;59.04
23166;BME280;11751;42.700;24.170;2023-03-23T10:36:34;93973.56;;;14.47;59.88
23166;BME280;11751;42.700;24.170;2023-03-23T10:41:33;93961.22;;;14.69;59.07
23166;BME280;11751;42.700;24.170;2023-03-23T10:43:58;93963.88;;;14.67;57.23
23166;BME280;11751;42.700;24.170;2023-03-23T10:46:30;93962.50;;;15.04;56.84
23166;BME280;11751;42.700;24.170;2023-03-23T10:49:01;93958.84;;;15.11;56.99
23166;BME280;11751;42.700;24.170;2023-03-23T10:51:34;93947.63;;;15.30;56.54
23166;BME280;11751;42.700;24.170;2023-03-23T10:54:02;93956.84;;;15.49;56.13
23166;BME280;11751;42.700;24.170;2023-03-23T10:56:39;93952.22;;;15.35;56.86
23166;BME280;11751;42.700;24.170;2023-03-23T10:59:26;93957.44;;;15.66;56.53
23166;BME280;11751;42.700;24.170;2023-03-23T11:01:55;93958.50;;;15.80;55.09
23166;BME280;11751;42.700;24.170;2023-03-23T11:04:22;93958.50;;;15.80;57.18
23166;BME280;11751;42.700;24.170;2023-03-23T11:06:51;93961.00;;;15.95;54.09
23166;BME280;11751;42.700;24.170;2023-03-23T11:09:20;93959.09;;;15.88;52.99
23166;BME280;11751;42.700;24.170;2023-03-23T11:11:52;93959.50;;;16.13;53.74
23166;BME280;11751;42.700;24.170;2023-03-23T11:14:19;93952.63;;;16.25;54.79
23166;BME280;11751;42.700;24.170;2023-03-23T11:16:51;93949.25;;;16.08;55.66
23166;BME280;11751;42.700;24.170;2023-03-23T11:19:27;93949.06;;;16.16;55.58
23166;BME280;11751;42.700;24.170;2023-03-23T11:21:56;93944.03;;;16.33;54.50
23166;BME280;11751;42.700;24.170;2023-03-23T11:24:27;93945.66;;;16.36;54.19
23166;BME280;11751;42.700;24.170;2023-03-23T11:26:53;93947.41;;;16.41;51.33
23166;BME280;11751;42.700;24.170;2023-03-23T11:29:24;93945.94;;;16.40;50.78
23166;BME280;11751;42.700;24.170;2023-03-23T11:34:34;93946.84;;;16.42;50.74
23166;BME280;11751;42.700;24.170;2023-03-23T11:37:05;93936.38;;;16.54;50.16
23166;BME280;11751;42.700;24.170;2023-03-23T11:39:46;93939.41;;;16.28;51.20
23166;BME280;11751;42.700;24.170;2023-03-23T11:42:23;93943.28;;;16.23;49.73
23166;BME280;11751;42.700;24.170;2023-03-23T11:44:53;93925.28;;;16.28;51.19
23166;BME280;11751;42.700;24.170;2023-03-23T11:47:27;93932.38;;;16.48;52.10
23166;BME280;11751;42.700;24.170;2023-03-23T11:52:29;93916.94;;;16.39;52.20
23166;BME280;11751;42.700;24.170;2023-03-23T11:55:07;93918.03;;;16.06;50.72
23166;BME280;11751;42.700;24.170;2023-03-23T11:57:35;93920.50;;;16.21;52.95
23166;BME280;11751;42.700;24.170;2023-03-23T12:00:01;93921.09;;;16.38;51.79
23166;BME280;11751;42.700;24.170;2023-03-23T12:02:55;93912.84;;;16.03;50.52
23166;BME280;11751;42.700;24.170;2023-03-23T12:05:45;93915.63;;;16.31;52.80
23166;BME280;11751;42.700;24.170;2023-03-23T12:14:26;93910.03;;;16.92;51.62
23166;BME280;11751;42.700;24.170;2023-03-23T12:17:03;93902.66;;;17.08;51.69
23166;BME280;11751;42.700;24.170;2023-03-23T12:35:59;93906.38;;;16.40;50.70
23166;BME280;11751;42.700;24.170;2023-03-23T12:38:56;93910.94;;;16.85;49.01
23166;BME280;11751;42.700;24.170;2023-03-23T12:41:29;93905.16;;;16.83;49.67
23166;BME280;11751;42.700;24.170;2023-03-23T12:44:00;93913.19;;;16.46;50.43
23166;BME280;11751;42.700;24.170;2023-03-23T12:52:03;93907.88;;;17.02;48.46
23166;BME280;11751;42.700;24.170;2023-03-23T13:02:19;93909.47;;;16.84;53.71
23166;BME280;11751;42.700;24.170;2023-03-23T13:07:45;93898.16;;;16.84;51.92
23166;BME280;11751;42.700;24.170;2023-03-23T13:10:28;93909.19;;;17.10;52.67
23166;BME280;11751;42.700;24.170;2023-03-23T13:12:55;93908.75;;;16.83;50.90
23166;BME280;11751;42.700;24.170;2023-03-23T13:15:31;93901.63;;;17.03;50.86
23166;BME280;11751;42.700;24.170;2023-03-23T13:21:05;93898.09;;;16.63;50.35
23166;BME280;11751;42.700;24.170;2023-03-23T13:23:41;93892.56;;;16.95;51.22
23166;BME280;11751;42.700;24.170;2023-03-23T13:26:13;93883.16;;;17.32;50.19
23166;BME280;11751;42.700;24.170;2023-03-23T13:31:17;93881.81;;;17.24;49.05
23166;BME280;11751;42.700;24.170;2023-03-23T13:33:52;93884.94;;;17.28;50.03
23166;BME280;11751;42.700;24.170;2023-03-23T13:36:27;93881.25;;;17.25;49.23
23166;BME280;11751;42.700;24.170;2023-03-23T13:38:55;93889.44;;;17.21;49.89
23166;BME280;11751;42.700;24.170;2023-03-23T13:41:22;93883.22;;;16.93;50.57
23166;BME280;11751;42.700;24.170;2023-03-23T13:43:48;93891.09;;;16.64;49.07
23166;BME280;11751;42.700;24.170;2023-03-23T13:48:48;93887.75;;;16.46;51.81
23166;BME280;11751;42.700;24.170;2023-03-23T14:02:57;93887.75;;;17.37;50.61
23166;BME280;11751;42.700;24.170;2023-03-23T14:10:54;93869.75;;;17.86;48.63
23166;BME280;11751;42.700;24.170;2023-03-23T14:16:02;93871.66;;;17.72;48.46
23166;BME280;11751;42.700;24.170;2023-03-23T14:18:35;93872.06;;;17.57;47.91
23166;BME280;11751;42.700;24.170;2023-03-23T14:21:01;93864.41;;;17.48;47.37
23166;BME280;11751;42.700;24.170;2023-03-23T14:23:27;93867.53;;;17.64;48.11
23166;BME280;11751;42.700;24.170;2023-03-23T14:26:01;93870.47;;;17.33;48.78
23166;BME280;11751;42.700;24.170;2023-03-23T14:28:32;93851.47;;;17.24;48.23
23166;BME280;11751;42.700;24.170;2023-03-23T14:31:01;93859.81;;;17.22;47.92
23166;BME280;11751;42.700;24.170;2023-03-23T14:33:27;93858.31;;;17.21;46.45
23166;BME280;11751;42.700;24.170;2023-03-23T14:35:53;93861.69;;;17.09;46.21
23166;BME280;11751;42.700;24.170;2023-03-23T14:38:20;93863.44;;;17.13;47.46
23166;BME280;11751;42.700;24.170;2023-03-23T14:40:50;93859.16;;;17.33;46.75
23166;BME280;11751;42.700;24.170;2023-03-23T14:43:17;93859.88;;;17.34;46.81
23166;BME280;11751;42.700;24.170;2023-03-23T14:45:49;93854.31;;;17.45;46.97
23166;BME280;11751;42.700;24.170;2023-03-23T14:48:16;93865.44;;;17.32;48.05
23166;BME280;11751;42.700;24.170;2023-03-23T14:51:01;93863.72;;;17.38;49.06
23166;BME280;11751;42.700;24.170;2023-03-23T14:53:38;93868.31;;;17.43;48.40